createdAt,value
2017-08-04T00:04:31.356Z,9.00
2017-08-04T00:10:00.481Z,8.63
2017-08-04T00:15:28.688Z,9.13
2017-08-04T00:20:56.896Z,9.23
2017-08-04T00:26:25.095Z,10.33
2017-08-04T00:31:53.280Z,10.70
2017-08-04T00:37:21.577Z,9.70
2017-08-04T00:42:49.773Z,8.77
2017-08-04T00:48:18.496Z,7.90
2017-08-04T00:53:48.480Z,9.40
2017-08-04T00:59:16.727Z,8.60
2017-08-04T01:04:44.901Z,8.23
2017-08-04T01:10:13.908Z,8.07
2017-08-04T01:15:42.076Z,9.27
2017-08-04T01:21:11.191Z,8.17
2017-08-04T01:26:39.363Z,8.77
2017-08-04T01:32:07.585Z,8.57
2017-08-04T01:37:35.872Z,8.60
2017-08-04T01:43:04.058Z,11.80
2017-08-04T01:48:32.998Z,8.83
2017-08-04T01:54:01.281Z,9.17
2017-08-04T01:59:30.094Z,9.87
2017-08-04T02:04:58.270Z,9.03
2017-08-04T02:10:26.440Z,8.70
2017-08-04T02:15:54.596Z,9.57
2017-08-04T02:21:22.867Z,8.90
2017-08-04T02:26:51.160Z,8.73
2017-08-04T02:32:20.161Z,8.37
2017-08-04T02:37:48.368Z,8.37
2017-08-04T02:43:20.240Z,7.77
2017-08-04T02:48:49.640Z,9.10
2017-08-04T02:54:17.787Z,8.37
2017-08-04T02:59:46.738Z,9.43
2017-08-04T03:05:14.933Z,8.87
2017-08-04T03:10:43.108Z,8.60
2017-08-04T03:16:21.516Z,9.23
2017-08-04T03:21:49.706Z,10.10
2017-08-04T03:27:18.202Z,9.70
2017-08-04T03:32:47.132Z,9.70
2017-08-04T03:38:18.573Z,9.80
2017-08-04T03:43:46.767Z,10.40
2017-08-04T03:49:16.848Z,10.13
2017-08-04T03:54:45.264Z,10.00
2017-08-04T04:00:13.448Z,9.70
2017-08-04T04:05:43.664Z,9.87
2017-08-04T04:11:11.993Z,10.20
2017-08-04T04:16:41.444Z,11.20
2017-08-04T04:22:10.764Z,10.40
2017-08-04T04:27:38.964Z,12.93
2017-08-04T04:33:07.155Z,12.90
2017-08-04T04:38:35.712Z,13.33
2017-08-04T04:44:05.853Z,15.30
2017-08-04T04:49:34.161Z,15.70
2017-08-04T04:55:02.974Z,16.50
2017-08-04T05:00:32.119Z,16.60
2017-08-04T05:06:01.123Z,14.23
2017-08-04T05:11:29.323Z,9.63
2017-08-04T05:16:57.504Z,9.27
2017-08-04T05:22:26.508Z,9.17
2017-08-04T05:27:54.725Z,9.53
2017-08-04T05:33:22.903Z,8.87
2017-08-04T05:38:51.067Z,9.83
2017-08-04T05:44:19.257Z,7.80
2017-08-04T05:49:47.427Z,7.90
2017-08-04T05:55:15.648Z,8.53
2017-08-04T06:00:44.622Z,9.10
2017-08-04T06:06:13.560Z,8.43
2017-08-04T06:11:42.392Z,9.13
2017-08-04T06:17:10.644Z,9.17
2017-08-04T06:22:39.585Z,11.20
2017-08-04T06:28:08.077Z,10.33
2017-08-04T06:33:36.321Z,10.47
2017-08-04T06:39:04.738Z,12.80
2017-08-04T06:44:32.939Z,18.33
2017-08-04T06:50:29.225Z,15.80
2017-08-04T06:56:09.712Z,10.23
2017-08-04T07:01:39.916Z,12.17
2017-08-04T07:07:08.235Z,9.30
2017-08-04T07:12:36.413Z,11.30
2017-08-04T07:18:14.449Z,11.00
2017-08-04T07:23:46.909Z,10.47
2017-08-04T07:29:15.092Z,10.17
2017-08-04T07:34:44.103Z,11.17
2017-08-04T07:40:16.028Z,10.03
2017-08-04T07:45:47.281Z,10.03
2017-08-04T07:51:16.944Z,9.60
2017-08-04T07:56:46.752Z,11.07
2017-08-04T08:02:14.934Z,11.07
2017-08-04T08:07:43.135Z,11.97
2017-08-04T08:13:11.289Z,11.17
2017-08-04T08:18:39.475Z,10.57
2017-08-04T08:24:07.658Z,10.50
2017-08-04T08:29:35.871Z,10.03
2017-08-04T08:35:04.031Z,10.60
2017-08-04T08:40:32.203Z,10.10
2017-08-04T08:46:01.365Z,11.20
2017-08-04T08:51:29.580Z,10.60
2017-08-04T08:56:58.080Z,10.10
2017-08-04T09:02:26.241Z,10.67
2017-08-04T09:07:54.389Z,10.40
2017-08-04T09:13:22.679Z,10.17
2017-08-04T09:18:50.843Z,9.70
2017-08-04T09:24:19.019Z,7.53
2017-08-04T09:29:47.215Z,7.87
2017-08-04T09:35:15.445Z,6.63
2017-08-04T09:40:44.396Z,7.07
2017-08-04T09:46:15.072Z,6.40
2017-08-04T09:51:43.287Z,7.33
2017-08-04T09:57:11.800Z,7.23
2017-08-04T10:02:39.955Z,6.37
2017-08-04T10:08:08.099Z,6.07
2017-08-04T10:13:36.261Z,6.60
2017-08-04T10:19:04.464Z,6.70
2017-08-04T10:24:32.616Z,5.40
2017-08-04T10:30:00.781Z,6.20
2017-08-04T10:35:29.058Z,6.50
2017-08-04T10:40:58.149Z,5.90
2017-08-04T10:46:26.403Z,5.73
2017-08-04T10:51:54.925Z,5.60
2017-08-04T10:57:23.151Z,6.33
2017-08-04T11:02:51.336Z,7.20
2017-08-04T11:08:19.501Z,6.27
2017-08-04T11:13:47.690Z,5.97
2017-08-04T11:19:15.916Z,6.53
2017-08-04T11:24:44.093Z,6.27
2017-08-04T11:30:12.284Z,5.87
2017-08-04T11:35:40.442Z,5.33
2017-08-04T11:41:08.768Z,5.90
2017-08-04T11:46:36.972Z,4.80
2017-08-04T11:52:05.165Z,5.60
2017-08-04T11:57:33.392Z,5.10
2017-08-04T12:03:01.549Z,5.30
2017-08-04T12:08:30.496Z,5.20
2017-08-04T12:13:58.664Z,5.57
2017-08-04T12:19:26.925Z,4.70
2017-08-04T12:24:55.119Z,5.30
2017-08-04T12:30:23.323Z,4.97
2017-08-04T12:35:51.483Z,5.20
2017-08-04T12:41:20.599Z,4.63
2017-08-04T12:46:49.374Z,5.17
2017-08-04T12:52:18.411Z,4.87
2017-08-04T12:57:47.857Z,4.70
2017-08-04T13:03:17.311Z,4.93
2017-08-04T13:08:45.471Z,4.73
2017-08-04T13:14:13.615Z,4.97
2017-08-04T13:19:41.769Z,5.17
2017-08-04T13:25:10.031Z,6.07
2017-08-04T13:30:38.311Z,5.00
2017-08-04T13:36:07.241Z,5.10
2017-08-04T13:41:35.399Z,4.80
2017-08-04T13:47:03.589Z,5.47
2017-08-04T13:52:31.754Z,4.93
2017-08-04T13:58:01.950Z,5.30
2017-08-04T14:03:30.265Z,4.70
2017-08-04T14:08:58.503Z,5.37
2017-08-04T14:14:26.706Z,4.90
2017-08-04T14:19:54.850Z,4.73
2017-08-04T14:25:23.030Z,4.73
2017-08-04T14:30:51.225Z,5.20
2017-08-04T14:36:19.385Z,5.30
2017-08-04T14:41:48.338Z,5.40
2017-08-04T14:47:17.259Z,4.63
2017-08-04T14:52:45.571Z,5.13
2017-08-04T14:58:13.722Z,4.70
2017-08-04T15:03:41.900Z,5.50
2017-08-04T15:09:10.925Z,5.00
2017-08-04T15:14:39.144Z,5.07
2017-08-04T15:20:08.060Z,4.60
2017-08-04T15:25:36.244Z,4.93
2017-08-04T15:31:04.404Z,5.30
2017-08-04T15:36:33.437Z,4.97
2017-08-04T15:42:02.432Z,4.63
2017-08-04T15:47:30.592Z,4.63
2017-08-04T15:52:58.762Z,5.00
2017-08-04T15:58:26.928Z,3.87
2017-08-04T16:03:55.089Z,4.30
2017-08-04T16:09:23.268Z,3.80
2017-08-04T16:14:51.440Z,6.23
2017-08-04T16:20:20.412Z,3.87
2017-08-04T16:25:49.387Z,4.27
2017-08-04T16:31:17.555Z,3.73
2017-08-04T16:36:45.754Z,3.93
2017-08-04T16:42:13.932Z,3.63
2017-08-04T16:47:42.110Z,3.70
2017-08-04T16:53:11.044Z,4.30
2017-08-04T16:58:39.225Z,3.33
2017-08-04T17:04:07.384Z,3.87
2017-08-04T17:09:35.561Z,3.70
2017-08-04T17:15:03.756Z,3.53
2017-08-04T17:20:35.542Z,3.50
2017-08-04T17:26:04.997Z,2.80
2017-08-04T17:31:33.295Z,3.40
2017-08-04T17:37:01.449Z,3.77
2017-08-04T17:42:29.639Z,3.40
2017-08-04T17:47:58.733Z,3.90
2017-08-04T17:53:26.875Z,4.03
2017-08-04T17:58:55.783Z,3.90
2017-08-04T18:04:24.040Z,4.33
2017-08-04T18:09:52.203Z,3.90
2017-08-04T18:15:20.417Z,4.20
2017-08-04T18:20:49.358Z,3.97
2017-08-04T18:26:17.659Z,4.60
2017-08-04T18:31:46.597Z,3.90
2017-08-04T18:37:14.790Z,4.20
2017-08-04T18:42:42.955Z,3.80
2017-08-04T18:48:11.096Z,3.13
2017-08-04T18:53:39.268Z,3.30
2017-08-04T18:59:07.427Z,3.50
2017-08-04T19:04:36.640Z,3.47
2017-08-04T19:10:05.582Z,3.80
2017-08-04T19:15:34.510Z,4.30
2017-08-04T19:21:03.033Z,3.93
2017-08-04T19:26:31.943Z,3.60
2017-08-04T19:32:00.116Z,5.37
2017-08-04T19:37:28.279Z,2.43
2017-08-04T19:42:58.358Z,2.80
2017-08-04T19:48:26.700Z,2.37
2017-08-04T19:53:54.904Z,2.17
2017-08-04T19:59:23.151Z,2.20
2017-08-04T20:04:52.295Z,2.70
2017-08-04T20:10:20.505Z,2.60
2017-08-04T20:15:48.969Z,2.43
2017-08-04T20:21:17.627Z,2.50
2017-08-04T20:26:45.821Z,2.00
2017-08-04T20:32:14.951Z,2.40
2017-08-04T20:37:43.092Z,2.23
2017-08-04T20:43:11.241Z,2.63
2017-08-04T20:48:39.391Z,2.33
2017-08-04T20:54:07.562Z,2.00
2017-08-04T20:59:35.762Z,2.30
2017-08-04T21:05:03.924Z,2.10
2017-08-04T21:10:32.928Z,2.67
2017-08-04T21:16:01.088Z,2.10
2017-08-04T21:21:33.810Z,2.23
2017-08-04T21:27:01.955Z,2.30
2017-08-04T21:32:30.106Z,2.33
2017-08-04T21:37:58.258Z,2.40
2017-08-04T21:43:26.441Z,2.33
2017-08-04T21:48:54.610Z,2.37
2017-08-04T21:54:22.776Z,2.00
2017-08-04T21:59:50.949Z,2.37
2017-08-04T22:05:19.154Z,2.57
2017-08-04T22:10:49.591Z,1.70
2017-08-04T22:16:17.821Z,2.30
2017-08-04T22:21:46.007Z,1.93
2017-08-04T22:27:14.211Z,1.80
2017-08-04T22:32:42.364Z,1.80
2017-08-04T22:38:21.288Z,2.17
2017-08-04T22:43:49.444Z,1.90
2017-08-04T22:49:17.612Z,1.80
2017-08-04T22:54:45.865Z,1.30
2017-08-04T23:00:14.026Z,2.27
2017-08-04T23:05:42.180Z,2.07
2017-08-04T23:11:12.335Z,2.07
2017-08-04T23:16:40.713Z,1.90
2017-08-04T23:22:11.164Z,1.50
2017-08-04T23:27:39.339Z,1.57
2017-08-04T23:33:33.347Z,2.10
2017-08-04T23:39:02.281Z,1.57
2017-08-04T23:44:30.474Z,1.73
2017-08-04T23:49:59.487Z,1.97
2017-08-04T23:55:27.649Z,1.80
